Time;durP1;ratioP1;P1;durP2;ratioP2;P2;SDS_P1;SDS_P2;PMS_P1;PMS_P2;Temp;Humidity;BMP_temperature;BMP_pressure;BME280_temperature;BME280_humidity;BME280_pressure;Samples;Min_cycle;Max_cycle;Signal;HPM_P1;HPM_P2
2023/03/07 00:02:02;;;;;;;11.93;6.28;;;;;;;;;;5131461;27;20031;-45
2023/03/07 00:04:28;;;;;;;12.75;6.72;;;;;;;;;;5130616;27;20097;-43
2023/03/07 00:06:55;;;;;;;12.27;6.63;;;;;;;;;;5130412;27;20031;-43
2023/03/07 00:09:21;;;;;;;9.57;5.70;;;;;;;;;;5130965;27;20102;-45
2023/03/07 00:11:49;;;;;;;12.52;6.43;;;;;;;;;;5130462;27;20463;-44
2023/03/07 00:14:15;;;;;;;11.13;6.18;;;;;;;;;;5130639;27;20030;-44
2023/03/07 00:16:41;;;;;;;11.15;5.85;;;;;;;;;;5130649;27;20397;-43
2023/03/07 00:19:07;;;;;;;10.55;6.38;;;;;;;;;;5130424;27;20465;-43
2023/03/07 00:21:33;;;;;;;11.85;6.03;;;;;;;;;;5130985;27;20071;-44
2023/03/07 00:23:59;;;;;;;11.57;6.38;;;;;;;;;;5130766;27;20023;-43
2023/03/07 00:26:26;;;;;;;10.88;6.45;;;;;;;;;;5130306;27;20794;-43
2023/03/07 00:28:52;;;;;;;10.55;5.82;;;;;;;;;;5130208;27;20023;-43
2023/03/07 00:31:19;;;;;;;12.23;6.97;;;;;;;;;;5130366;27;20030;-43
2023/03/07 00:33:46;;;;;;;11.65;6.00;;;;;;;;;;5129768;27;20024;-44
2023/03/07 00:36:19;;;;;;;10.23;5.90;;;;;;;;;;5130265;27;20028;-45
2023/03/07 00:38:45;;;;;;;10.25;6.03;;;;;;;;;;5130008;27;20042;-44
2023/03/07 00:41:16;;;;;;;11.13;6.38;;;;;;;;;;5130243;27;20035;-43
2023/03/07 00:43:42;;;;;;;8.68;5.28;;;;;;;;;;5130001;27;20112;-43
2023/03/07 00:46:08;;;;;;;9.18;5.65;;;;;;;;;;5130022;27;20112;-43
2023/03/07 00:48:36;;;;;;;8.68;4.97;;;;;;;;;;5129104;27;20031;-43
2023/03/07 00:51:02;;;;;;;9.82;5.65;;;;;;;;;;5130098;27;20019;-44
2023/03/07 00:53:28;;;;;;;12.05;6.13;;;;;;;;;;5129341;27;20094;-43
2023/03/07 00:55:54;;;;;;;8.73;5.43;;;;;;;;;;5129383;27;20031;-43
2023/03/07 00:58:20;;;;;;;9.85;5.65;;;;;;;;;;5129909;27;20411;-43
2023/03/07 01:00:46;;;;;;;9.00;5.15;;;;;;;;;;5120826;27;20036;-43
2023/03/07 01:03:12;;;;;;;9.80;5.30;;;;;;;;;;5109719;28;20028;-43
2023/03/07 06:13:40;;;;;;;27.38;14.02;;;;;;;;;;5101457;28;20047;-44
2023/03/07 06:16:06;;;;;;;25.20;12.77;;;;;;;;;;5107507;28;20031;-42
2023/03/07 06:18:32;;;;;;;22.58;11.27;;;;;;;;;;5107891;28;20426;-42
2023/03/07 06:20:59;;;;;;;18.73;9.90;;;;;;;;;;5108087;28;20028;-42
2023/03/07 06:23:26;;;;;;;17.90;9.52;;;;;;;;;;5107409;28;20073;-42
2023/03/07 06:25:52;;;;;;;14.77;8.90;;;;;;;;;;5119104;27;20100;-42
2023/03/07 06:28:18;;;;;;;16.83;8.93;;;;;;;;;;5127967;27;20510;-43
2023/03/07 06:30:45;;;;;;;12.38;7.72;;;;;;;;;;5128344;27;20506;-42
2023/03/07 06:33:11;;;;;;;14.13;7.78;;;;;;;;;;5127173;27;20018;-42
2023/03/07 06:35:42;;;;;;;20.27;10.00;;;;;;;;;;5127095;27;20031;-42
2023/03/07 06:38:08;;;;;;;21.35;10.50;;;;;;;;;;5128239;27;20057;-42
2023/03/07 06:40:35;;;;;;;31.17;13.88;;;;;;;;;;5127802;27;20111;-43
2023/03/07 06:43:01;;;;;;;28.70;13.02;;;;;;;;;;5128398;27;20422;-42
2023/03/07 06:45:27;;;;;;;28.92;13.50;;;;;;;;;;5128080;27;20023;-42
2023/03/07 06:47:53;;;;;;;23.02;11.70;;;;;;;;;;5128008;27;20122;-42
2023/03/07 06:50:19;;;;;;;19.58;10.90;;;;;;;;;;5127687;27;20076;-42
2023/03/07 06:52:48;;;;;;;22.70;11.07;;;;;;;;;;5127666;27;20031;-42
2023/03/07 06:55:15;;;;;;;22.77;11.43;;;;;;;;;;5127605;27;20019;-42
2023/03/07 06:57:41;;;;;;;20.63;10.65;;;;;;;;;;5127528;27;20027;-42
2023/03/07 07:00:08;;;;;;;17.77;9.88;;;;;;;;;;5127327;27;20034;-42
2023/03/07 07:02:34;;;;;;;15.82;9.23;;;;;;;;;;5127090;27;20115;-41
2023/03/07 07:05:01;;;;;;;21.20;10.90;;;;;;;;;;5127772;28;20073;-42
2023/03/07 07:07:29;;;;;;;31.73;14.07;;;;;;;;;;5130111;27;20478;-42
2023/03/07 07:09:55;;;;;;;39.28;16.48;;;;;;;;;;5131957;27;20026;-42
2023/03/07 07:12:21;;;;;;;38.28;16.42;;;;;;;;;;5122059;27;20149;-42
2023/03/07 07:14:47;;;;;;;33.25;14.43;;;;;;;;;;5110671;28;20027;-42
2023/03/07 07:17:14;;;;;;;30.05;13.77;;;;;;;;;;5109480;28;20043;-42
2023/03/07 07:19:41;;;;;;;30.02;13.63;;;;;;;;;;5110395;28;20036;-42
2023/03/07 07:22:10;;;;;;;28.83;13.48;;;;;;;;;;5111448;28;20123;-43
2023/03/07 07:24:37;;;;;;;35.75;15.85;;;;;;;;;;5112628;28;20051;-43
2023/03/07 07:27:03;;;;;;;29.52;13.57;;;;;;;;;;5112504;28;20062;-42
2023/03/07 07:29:29;;;;;;;27.55;13.45;;;;;;;;;;5112572;28;20027;-42
2023/03/07 07:31:55;;;;;;;30.55;14.52;;;;;;;;;;5112530;28;20023;-43
2023/03/07 07:34:21;;;;;;;31.98;16.67;;;;;;;;;;5111977;28;20016;-42
2023/03/07 07:36:47;;;;;;;31.73;17.20;;;;;;;;;;5111995;28;20474;-42
2023/03/07 07:39:16;;;;;;;32.40;17.17;;;;;;;;;;5112032;28;20024;-43
2023/03/07 07:41:43;;;;;;;29.02;16.35;;;;;;;;;;5112046;28;20028;-42
2023/03/07 07:44:09;;;;;;;30.25;15.20;;;;;;;;;;5112020;28;20023;-43
2023/03/07 07:46:35;;;;;;;27.27;13.90;;;;;;;;;;5111838;28;20057;-43
2023/03/07 07:49:02;;;;;;;22.67;12.23;;;;;;;;;;5112463;28;20020;-43
2023/03/07 07:51:30;;;;;;;21.08;11.82;;;;;;;;;;5111651;28;20027;-43
2023/03/07 07:53:56;;;;;;;19.17;11.13;;;;;;;;;;5111361;28;20082;-42
2023/03/07 07:56:22;;;;;;;16.95;9.93;;;;;;;;;;5109814;28;20578;-43
2023/03/07 07:58:48;;;;;;;20.45;10.80;;;;;;;;;;5108537;28;20028;-43
2023/03/07 08:01:18;;;;;;;19.67;10.77;;;;;;;;;;5111514;28;20080;-44
2023/03/07 08:03:44;;;;;;;18.90;10.50;;;;;;;;;;5111469;28;20071;-43
2023/03/07 08:06:11;;;;;;;17.58;10.30;;;;;;;;;;5111464;28;20424;-43
2023/03/07 08:08:37;;;;;;;17.90;10.65;;;;;;;;;;5091446;28;20024;-43
2023/03/07 08:11:03;;;;;;;14.82;8.90;;;;;;;;;;5106675;28;20031;-43
2023/03/07 08:13:29;;;;;;;17.70;9.13;;;;;;;;;;5105425;28;20462;-43
2023/03/07 08:15:55;;;;;;;14.60;8.27;;;;;;;;;;5109057;28;20031;-43
2023/03/07 08:18:21;;;;;;;15.73;8.63;;;;;;;;;;5103610;28;20023;-42
2023/03/07 08:20:47;;;;;;;12.90;7.55;;;;;;;;;;5107153;28;20036;-42
2023/03/07 08:23:13;;;;;;;14.98;8.27;;;;;;;;;;5106729;28;20063;-44
2023/03/07 08:25:39;;;;;;;14.63;7.93;;;;;;;;;;5105499;28;20061;-42
2023/03/07 08:28:06;;;;;;;12.52;7.47;;;;;;;;;;5110756;28;20486;-43
2023/03/07 08:30:34;;;;;;;12.23;7.43;;;;;;;;;;5115223;27;20023;-43
2023/03/07 08:33:00;;;;;;;11.32;7.40;;;;;;;;;;5122692;27;20096;-43
2023/03/07 08:35:28;;;;;;;11.68;6.55;;;;;;;;;;5115498;27;20111;-44
2023/03/07 08:37:58;;;;;;;11.32;6.53;;;;;;;;;;5109684;28;20063;-43
2023/03/07 08:40:25;;;;;;;10.00;6.35;;;;;;;;;;5108903;28;20375;-43
2023/03/07 08:42:51;;;;;;;10.35;6.25;;;;;;;;;;5109560;27;20388;-43
2023/03/07 08:45:17;;;;;;;11.70;6.22;;;;;;;;;;5109749;28;20059;-43
2023/03/07 08:47:43;;;;;;;11.25;6.68;;;;;;;;;;5109980;27;20022;-43
2023/03/07 08:50:09;;;;;;;10.20;6.38;;;;;;;;;;5108136;28;20028;-44
2023/03/07 08:52:36;;;;;;;9.73;6.25;;;;;;;;;;5110597;28;20096;-43
2023/03/07 08:55:02;;;;;;;9.40;6.20;;;;;;;;;;5110365;28;20030;-43
2023/03/07 08:57:28;;;;;;;11.13;6.45;;;;;;;;;;5109699;28;20130;-43
2023/03/07 08:59:54;;;;;;;9.80;5.95;;;;;;;;;;5107267;28;20055;-43
2023/03/07 09:02:20;;;;;;;10.43;5.90;;;;;;;;;;5107954;28;20550;-43
2023/03/07 09:04:46;;;;;;;10.00;6.80;;;;;;;;;;5108562;28;20027;-44
2023/03/07 09:07:12;;;;;;;9.02;5.80;;;;;;;;;;5108256;28;20395;-44
2023/03/07 09:09:39;;;;;;;12.98;7.28;;;;;;;;;;5108956;28;20041;-44
2023/03/07 09:12:05;;;;;;;9.52;6.15;;;;;;;;;;5114940;27;20257;-43
2023/03/07 09:14:31;;;;;;;7.78;5.30;;;;;;;;;;5127659;27;20031;-43
2023/03/07 09:16:56;;;;;;;8.70;5.57;;;;;;;;;;5127960;27;20023;-43
2023/03/07 09:19:22;;;;;;;9.07;5.32;;;;;;;;;;5127904;27;20511;-42
2023/03/07 09:21:49;;;;;;;9.00;5.75;;;;;;;;;;5127811;27;20478;-43
2023/03/07 09:24:15;;;;;;;9.85;5.65;;;;;;;;;;5128021;27;20604;-43
2023/03/07 09:26:41;;;;;;;9.18;6.07;;;;;;;;;;5127423;27;20106;-43
2023/03/07 09:29:07;;;;;;;9.00;5.35;;;;;;;;;;5126624;27;20359;-43
2023/03/07 09:31:33;;;;;;;12.27;5.38;;;;;;;;;;5127850;27;20023;-43
2023/03/07 09:33:59;;;;;;;7.13;5.15;;;;;;;;;;5127322;27;20451;-43
2023/03/07 09:36:26;;;;;;;8.30;5.47;;;;;;;;;;5127455;27;20065;-43
2023/03/07 09:38:52;;;;;;;8.45;5.30;;;;;;;;;;5127245;27;20027;-44
2023/03/07 09:41:39;;;;;;;7.60;5.38;;;;;;;;;;5127239;27;20027;-44
2023/03/07 09:44:05;;;;;;;7.05;4.57;;;;;;;;;;5127692;27;20519;-43
2023/03/07 09:46:31;;;;;;;7.32;4.70;;;;;;;;;;5127460;27;20047;-43
2023/03/07 09:49:03;;;;;;;8.00;4.80;;;;;;;;;;5127119;27;20031;-44
2023/03/07 09:51:32;;;;;;;7.25;4.88;;;;;;;;;;5127148;27;20051;-44
2023/03/07 09:54:00;;;;;;;9.27;5.38;;;;;;;;;;5127274;27;20045;-43
2023/03/07 09:56:32;;;;;;;8.55;4.97;;;;;;;;;;5126947;27;20042;-45
2023/03/07 09:59:21;;;;;;;8.38;4.82;;;;;;;;;;5126896;27;20027;-44
2023/03/07 10:01:49;;;;;;;8.77;5.55;;;;;;;;;;5127019;27;20110;-43
2023/03/07 10:04:19;;;;;;;5.97;4.38;;;;;;;;;;5126782;27;20031;-43
2023/03/07 10:06:49;;;;;;;6.43;4.10;;;;;;;;;;5126908;27;20027;-45
2023/03/07 10:09:20;;;;;;;7.15;4.55;;;;;;;;;;5122910;27;20028;-44
2023/03/07 10:11:46;;;;;;;7.13;4.60;;;;;;;;;;5103254;28;20016;-45
2023/03/07 10:14:21;;;;;;;5.60;3.67;;;;;;;;;;5085419;28;20027;-44
2023/03/07 10:17:00;;;;;;;8.18;4.80;;;;;;;;;;5086725;28;20024;-43
2023/03/07 10:19:25;;;;;;;6.75;4.50;;;;;;;;;;5085779;28;20419;-44
2023/03/07 10:21:51;;;;;;;6.15;3.97;;;;;;;;;;5084467;28;20028;-44
2023/03/07 10:24:36;;;;;;;7.75;4.63;;;;;;;;;;5086284;28;20575;-43
2023/03/07 10:27:05;;;;;;;7.25;4.28;;;;;;;;;;5085645;28;20032;-43
2023/03/07 10:29:46;;;;;;;8.02;4.82;;;;;;;;;;5085535;28;20406;-43
2023/03/07 10:32:16;;;;;;;9.25;5.30;;;;;;;;;;5085372;28;20016;-44
2023/03/07 10:34:42;;;;;;;6.97;4.60;;;;;;;;;;5084264;28;20510;-44
2023/03/07 10:37:19;;;;;;;7.90;4.57;;;;;;;;;;5085500;28;20028;-43
2023/03/07 10:39:53;;;;;;;8.43;4.72;;;;;;;;;;5086155;28;20422;-43
2023/03/07 10:42:24;;;;;;;8.80;5.07;;;;;;;;;;5085155;28;20020;-44
2023/03/07 10:44:51;;;;;;;7.05;4.13;;;;;;;;;;5085499;28;20540;-44
2023/03/07 10:47:21;;;;;;;7.03;4.18;;;;;;;;;;5085898;28;20028;-44
2023/03/07 10:49:49;;;;;;;9.57;6.03;;;;;;;;;;5085977;28;20063;-44
2023/03/07 10:52:21;;;;;;;9.13;5.60;;;;;;;;;;5085870;28;20051;-43
2023/03/07 10:54:47;;;;;;;9.43;5.63;;;;;;;;;;5085984;28;20020;-44
2023/03/07 10:57:17;;;;;;;8.63;5.60;;;;;;;;;;5085589;28;20054;-44
2023/03/07 10:59:48;;;;;;;8.32;5.13;;;;;;;;;;5103023;28;20118;-43
2023/03/07 11:02:32;;;;;;;10.07;5.55;;;;;;;;;;5104862;28;20507;-43
2023/03/07 11:04:58;;;;;;;9.77;5.95;;;;;;;;;;5085317;28;20039;-44
2023/03/07 11:07:37;;;;;;;9.80;6.00;;;;;;;;;;5092265;28;20020;-44
2023/03/07 11:10:22;;;;;;;7.70;5.03;;;;;;;;;;5105452;28;20028;-44
2023/03/07 11:12:48;;;;;;;6.80;4.93;;;;;;;;;;5116684;27;20375;-44
2023/03/07 11:15:24;;;;;;;7.43;4.88;;;;;;;;;;5126447;28;20072;-44
2023/03/07 11:17:51;;;;;;;9.00;5.18;;;;;;;;;;5126163;27;20516;-44
2023/03/07 11:20:27;;;;;;;8.40;5.43;;;;;;;;;;5126357;28;20027;-44
2023/03/07 11:23:12;;;;;;;9.75;5.88;;;;;;;;;;5105360;28;20028;-44
2023/03/07 11:25:39;;;;;;;8.50;4.93;;;;;;;;;;5111355;28;20106;-44
2023/03/07 11:28:22;;;;;;;8.85;5.13;;;;;;;;;;5116128;28;20430;-45
2023/03/07 11:30:51;;;;;;;6.82;4.85;;;;;;;;;;5126201;28;20054;-45
2023/03/07 11:33:20;;;;;;;12.45;6.43;;;;;;;;;;5127659;28;20072;-46
2023/03/07 11:35:53;;;;;;;10.68;6.72;;;;;;;;;;5116559;28;20027;-43
2023/03/07 11:38:22;;;;;;;9.20;5.32;;;;;;;;;;5127133;27;20023;-44
2023/03/07 11:40:56;;;;;;;9.32;6.00;;;;;;;;;;5127320;27;20077;-46
2023/03/07 11:43:40;;;;;;;6.45;4.63;;;;;;;;;;5126798;27;20062;-43
2023/03/07 11:46:20;;;;;;;8.82;5.50;;;;;;;;;;5126729;27;20390;-44
2023/03/07 11:48:49;;;;;;;10.48;5.65;;;;;;;;;;5127621;27;20023;-44
2023/03/07 11:51:30;;;;;;;8.13;4.90;;;;;;;;;;5127794;28;20027;-44
2023/03/07 11:53:56;;;;;;;8.30;5.10;;;;;;;;;;5130146;27;20099;-44
2023/03/07 11:56:29;;;;;;;7.68;4.85;;;;;;;;;;5131038;27;20031;-43
2023/03/07 11:59:02;;;;;;;7.70;4.40;;;;;;;;;;5130578;27;20056;-45
2023/03/07 12:01:36;;;;;;;7.47;4.32;;;;;;;;;;5130408;27;20514;-44
2023/03/07 12:04:14;;;;;;;9.70;6.25;;;;;;;;;;5131085;27;20019;-44
2023/03/07 12:06:43;;;;;;;9.32;5.95;;;;;;;;;;5130263;27;20143;-44
2023/03/07 12:09:34;;;;;;;8.55;5.57;;;;;;;;;;5129717;27;20027;-44
2023/03/07 12:12:06;;;;;;;8.50;5.15;;;;;;;;;;5130661;27;20042;-44
2023/03/07 12:14:32;;;;;;;10.93;5.80;;;;;;;;;;5095394;28;20047;-44
2023/03/07 12:17:31;;;;;;;11.98;6.82;;;;;;;;;;5109954;28;20032;-43
2023/03/07 12:20:19;;;;;;;16.75;8.93;;;;;;;;;;5070884;28;20089;-44
2023/03/07 12:22:50;;;;;;;13.05;7.43;;;;;;;;;;5104218;28;20042;-43
2023/03/07 12:25:24;;;;;;;13.10;7.38;;;;;;;;;;5107958;28;20023;-45
2023/03/07 12:27:50;;;;;;;16.13;8.80;;;;;;;;;;5109717;28;20024;-43
2023/03/07 12:30:18;;;;;;;15.63;8.18;;;;;;;;;;5109881;28;20410;-43
2023/03/07 12:32:45;;;;;;;13.98;8.48;;;;;;;;;;5121029;27;20023;-44
2023/03/07 12:35:20;;;;;;;15.27;8.60;;;;;;;;;;5130031;27;20038;-44
2023/03/07 12:37:54;;;;;;;18.05;9.40;;;;;;;;;;5123624;27;20027;-43
2023/03/07 12:40:21;;;;;;;16.17;9.03;;;;;;;;;;5106455;28;20027;-44
2023/03/07 12:42:56;;;;;;;17.58;9.20;;;;;;;;;;5109439;27;20027;-44
2023/03/07 12:45:23;;;;;;;13.98;8.02;;;;;;;;;;5113484;27;20011;-44
2023/03/07 12:47:50;;;;;;;13.32;6.97;;;;;;;;;;5129208;27;20080;-43
2023/03/07 12:50:23;;;;;;;12.48;7.07;;;;;;;;;;5128985;27;20023;-44
2023/03/07 12:52:55;;;;;;;18.15;8.52;;;;;;;;;;5128855;27;20509;-43
2023/03/07 12:55:21;;;;;;;19.08;10.02;;;;;;;;;;5124364;27;20023;-43
2023/03/07 12:57:56;;;;;;;19.30;9.40;;;;;;;;;;5087718;28;20024;-43
2023/03/07 13:00:23;;;;;;;20.75;10.23;;;;;;;;;;5087658;28;20012;-46
2023/03/07 13:02:55;;;;;;;17.65;9.90;;;;;;;;;;5097993;28;20043;-44
2023/03/07 13:05:21;;;;;;;19.23;8.95;;;;;;;;;;5106380;28;20028;-44
2023/03/07 13:07:48;;;;;;;13.50;7.38;;;;;;;;;;5094938;28;20028;-43
2023/03/07 13:10:20;;;;;;;11.10;6.55;;;;;;;;;;5107405;28;20024;-47
2023/03/07 13:12:50;;;;;;;12.60;7.22;;;;;;;;;;5098150;28;20116;-44
2023/03/07 13:15:24;;;;;;;10.95;5.95;;;;;;;;;;5097564;28;20072;-44
2023/03/07 13:17:50;;;;;;;10.65;5.93;;;;;;;;;;5106662;28;20566;-44
2023/03/07 13:20:16;;;;;;;12.10;6.82;;;;;;;;;;5105324;28;20024;-44
2023/03/07 13:22:43;;;;;;;13.50;7.45;;;;;;;;;;5106088;28;20085;-43
2023/03/07 13:25:19;;;;;;;13.23;6.80;;;;;;;;;;5106432;28;20024;-43
2023/03/07 13:27:45;;;;;;;12.15;7.18;;;;;;;;;;5105092;28;20019;-43
2023/03/07 13:30:13;;;;;;;14.82;7.45;;;;;;;;;;5107057;28;20043;-43
2023/03/07 13:32:48;;;;;;;15.73;8.10;;;;;;;;;;5106770;28;20047;-43
2023/03/07 13:35:23;;;;;;;14.68;8.07;;;;;;;;;;5104878;28;20085;-42
2023/03/07 13:37:53;;;;;;;17.23;8.18;;;;;;;;;;5105165;28;20057;-43
2023/03/07 13:40:29;;;;;;;18.30;8.80;;;;;;;;;;5107678;28;20035;-43
2023/03/07 13:42:55;;;;;;;17.20;8.90;;;;;;;;;;5102770;28;20374;-43
2023/03/07 13:45:37;;;;;;;21.00;10.23;;;;;;;;;;5105591;28;20024;-44
2023/03/07 13:48:14;;;;;;;18.77;9.38;;;;;;;;;;5104752;28;20032;-43
2023/03/07 13:50:49;;;;;;;17.83;9.13;;;;;;;;;;5106692;28;20039;-43
2023/03/07 13:53:17;;;;;;;16.90;9.00;;;;;;;;;;5106187;28;20023;-43
2023/03/07 13:55:49;;;;;;;19.00;8.90;;;;;;;;;;5106437;28;20031;-43
2023/03/07 13:58:30;;;;;;;18.45;9.15;;;;;;;;;;5106877;28;20032;-44
2023/03/07 14:00:59;;;;;;;16.08;8.02;;;;;;;;;;5105285;28;20314;-43
2023/03/07 14:03:32;;;;;;;12.95;7.18;;;;;;;;;;5101224;28;20035;-44
2023/03/07 14:06:00;;;;;;;14.25;7.63;;;;;;;;;;5104101;28;20125;-42
2023/03/07 14:08:30;;;;;;;11.88;7.13;;;;;;;;;;5103893;28;20016;-44
2023/03/07 14:10:56;;;;;;;17.50;8.52;;;;;;;;;;5104622;28;20094;-45
2023/03/07 14:13:38;;;;;;;13.50;6.95;;;;;;;;;;5113946;27;20121;-45
2023/03/07 14:16:08;;;;;;;18.80;9.15;;;;;;;;;;5120155;27;20031;-44
2023/03/07 14:18:37;;;;;;;16.88;8.32;;;;;;;;;;5125190;27;20031;-43
2023/03/07 14:21:05;;;;;;;18.25;9.35;;;;;;;;;;5125349;27;20031;-43
2023/03/07 14:23:51;;;;;;;18.05;9.05;;;;;;;;;;5124761;27;20079;-44
2023/03/07 14:26:26;;;;;;;15.50;8.85;;;;;;;;;;5123418;27;20030;-44
2023/03/07 14:29:03;;;;;;;16.27;8.55;;;;;;;;;;5125370;27;20088;-45
2023/03/07 14:31:31;;;;;;;17.52;8.15;;;;;;;;;;5125104;27;20023;-45
2023/03/07 14:33:57;;;;;;;16.88;8.65;;;;;;;;;;5124786;27;20098;-44
2023/03/07 14:36:25;;;;;;;14.60;8.23;;;;;;;;;;5123512;27;20093;-44
2023/03/07 14:38:54;;;;;;;14.52;8.15;;;;;;;;;;5125027;27;20035;-43
2023/03/07 14:41:35;;;;;;;15.90;7.32;;;;;;;;;;5125564;27;20482;-45
2023/03/07 14:44:19;;;;;;;12.77;7.35;;;;;;;;;;5124574;27;20016;-44
2023/03/07 14:47:09;;;;;;;11.50;6.88;;;;;;;;;;5124553;27;20038;-44
2023/03/07 14:49:39;;;;;;;10.77;7.05;;;;;;;;;;5126201;27;20015;-44
2023/03/07 14:52:09;;;;;;;11.27;6.70;;;;;;;;;;5125668;27;20114;-45
2023/03/07 14:54:36;;;;;;;12.73;6.80;;;;;;;;;;5124430;27;20494;-44
2023/03/07 14:57:03;;;;;;;13.32;7.78;;;;;;;;;;5122298;27;20106;-44
2023/03/07 14:59:29;;;;;;;11.30;7.10;;;;;;;;;;5126690;27;20034;-43
2023/03/07 15:01:56;;;;;;;15.90;7.13;;;;;;;;;;5127049;27;20039;-43
2023/03/07 15:04:22;;;;;;;12.38;7.00;;;;;;;;;;5125702;27;20027;-43
2023/03/07 15:06:52;;;;;;;12.48;6.85;;;;;;;;;;5122668;28;20031;-43
2023/03/07 15:09:18;;;;;;;11.40;6.90;;;;;;;;;;5127889;28;20023;-43
2023/03/07 15:11:49;;;;;;;12.75;6.85;;;;;;;;;;5123053;28;20031;-43
2023/03/07 15:14:31;;;;;;;12.05;6.78;;;;;;;;;;5106744;28;20027;-44
2023/03/07 15:17:02;;;;;;;11.75;6.85;;;;;;;;;;5106592;28;20034;-43
2023/03/07 15:19:44;;;;;;;11.57;6.80;;;;;;;;;;5107353;28;20129;-43
2023/03/07 15:22:31;;;;;;;11.68;6.82;;;;;;;;;;5097793;28;20114;-43
2023/03/07 15:24:57;;;;;;;14.55;7.90;;;;;;;;;;5107010;28;20027;-43
2023/03/07 15:27:25;;;;;;;12.30;7.47;;;;;;;;;;5107225;28;20055;-42
2023/03/07 15:29:51;;;;;;;14.70;8.43;;;;;;;;;;5109775;28;20027;-43
2023/03/07 15:32:32;;;;;;;14.13;8.45;;;;;;;;;;5094244;28;20039;-42
2023/03/07 15:35:17;;;;;;;18.13;10.32;;;;;;;;;;5111462;28;20023;-43
2023/03/07 15:37:54;;;;;;;22.70;12.20;;;;;;;;;;5110658;28;20032;-42
2023/03/07 15:40:23;;;;;;;16.63;10.18;;;;;;;;;;5111876;28;20031;-41
2023/03/07 15:42:50;;;;;;;21.40;11.50;;;;;;;;;;5108927;28;20042;-42
2023/03/07 15:45:31;;;;;;;19.30;10.77;;;;;;;;;;5110075;28;20020;-42
2023/03/07 15:47:59;;;;;;;17.25;9.80;;;;;;;;;;5109874;28;20084;-42
2023/03/07 15:50:26;;;;;;;15.93;9.38;;;;;;;;;;5109739;28;20051;-42
2023/03/07 15:52:59;;;;;;;12.32;7.50;;;;;;;;;;5110174;28;20031;-42
2023/03/07 15:55:26;;;;;;;12.30;7.13;;;;;;;;;;5108108;28;20386;-42
2023/03/07 15:57:54;;;;;;;13.98;7.47;;;;;;;;;;5089692;28;20024;-42
2023/03/07 16:00:21;;;;;;;11.40;7.15;;;;;;;;;;5109000;28;20063;-43
2023/03/07 16:02:48;;;;;;;11.25;6.80;;;;;;;;;;5108614;28;20031;-43
2023/03/07 16:05:14;;;;;;;13.98;7.78;;;;;;;;;;5107224;28;20073;-42
2023/03/07 16:07:40;;;;;;;12.27;6.85;;;;;;;;;;5099790;28;20403;-43
2023/03/07 16:10:06;;;;;;;12.73;7.28;;;;;;;;;;5108004;28;20024;-42
2023/03/07 16:12:32;;;;;;;11.52;6.97;;;;;;;;;;5106739;28;20099;-42
2023/03/07 16:15:00;;;;;;;14.68;8.57;;;;;;;;;;5108429;28;20050;-42
2023/03/07 16:17:36;;;;;;;16.10;9.20;;;;;;;;;;5107823;28;20094;-44
2023/03/07 16:20:03;;;;;;;16.02;8.93;;;;;;;;;;5103548;28;20122;-43
2023/03/07 16:22:30;;;;;;;16.63;8.75;;;;;;;;;;5103169;28;20032;-44
2023/03/07 16:24:56;;;;;;;13.98;8.60;;;;;;;;;;5105301;28;20056;-44
2023/03/07 16:27:24;;;;;;;12.80;7.70;;;;;;;;;;5107840;28;20027;-43
2023/03/07 16:29:51;;;;;;;13.30;7.88;;;;;;;;;;5108195;28;20016;-44
2023/03/07 16:32:19;;;;;;;12.35;7.45;;;;;;;;;;5105308;28;20024;-44
2023/03/07 16:34:45;;;;;;;11.15;6.80;;;;;;;;;;5105457;28;20027;-43
2023/03/07 16:37:12;;;;;;;11.60;7.40;;;;;;;;;;5107820;28;20028;-44
2023/03/07 16:39:38;;;;;;;13.02;7.47;;;;;;;;;;5106954;28;20051;-44
2023/03/07 16:42:06;;;;;;;12.02;7.35;;;;;;;;;;5108164;28;20027;-47
2023/03/07 16:44:37;;;;;;;13.95;7.95;;;;;;;;;;5107842;28;20027;-43
2023/03/07 16:47:03;;;;;;;12.50;7.55;;;;;;;;;;5100951;28;20035;-43
2023/03/07 16:49:29;;;;;;;10.80;6.47;;;;;;;;;;5102704;28;20089;-44
2023/03/07 16:51:55;;;;;;;9.75;6.35;;;;;;;;;;5102885;28;20028;-46
2023/03/07 16:54:21;;;;;;;9.32;6.10;;;;;;;;;;5109362;28;20027;-45
2023/03/07 16:56:48;;;;;;;11.82;7.50;;;;;;;;;;5109161;28;20036;-45
2023/03/07 16:59:16;;;;;;;11.93;6.65;;;;;;;;;;5105838;28;20045;-44
2023/03/07 17:01:43;;;;;;;9.60;6.10;;;;;;;;;;5100198;28;20034;-43
2023/03/07 17:04:09;;;;;;;9.15;5.75;;;;;;;;;;5093883;28;20134;-45
2023/03/07 17:06:37;;;;;;;9.65;5.38;;;;;;;;;;5105564;28;20106;-44
2023/03/07 17:09:03;;;;;;;7.70;5.90;;;;;;;;;;5107177;28;20134;-45
2023/03/07 17:11:30;;;;;;;10.77;6.20;;;;;;;;;;5107364;28;20032;-45
2023/03/07 17:13:58;;;;;;;9.70;6.30;;;;;;;;;;5107318;28;20023;-45
2023/03/07 17:16:24;;;;;;;7.70;5.38;;;;;;;;;;5107676;28;20526;-45
2023/03/07 17:18:50;;;;;;;10.65;7.13;;;;;;;;;;5107871;28;20038;-45
2023/03/07 17:21:19;;;;;;;11.05;6.75;;;;;;;;;;5107031;28;20036;-44
2023/03/07 17:23:45;;;;;;;10.57;5.90;;;;;;;;;;5107068;28;20062;-45
2023/03/07 17:26:31;;;;;;;10.98;6.30;;;;;;;;;;5107174;28;20059;-45
2023/03/07 17:28:59;;;;;;;7.82;5.05;;;;;;;;;;5106982;28;20485;-44
2023/03/07 17:31:25;;;;;;;7.00;5.00;;;;;;;;;;5107192;28;20019;-46
2023/03/07 17:33:51;;;;;;;7.05;4.72;;;;;;;;;;5106761;28;20031;-44
2023/03/07 17:36:17;;;;;;;8.70;5.50;;;;;;;;;;5107199;28;20024;-44
2023/03/07 17:38:43;;;;;;;9.65;5.55;;;;;;;;;;5106762;28;20172;-45
2023/03/07 17:41:10;;;;;;;9.13;6.20;;;;;;;;;;5107082;28;20456;-45
2023/03/07 17:43:39;;;;;;;10.13;6.30;;;;;;;;;;5105689;28;20042;-45
2023/03/07 17:46:09;;;;;;;12.80;7.43;;;;;;;;;;5106036;28;20023;-45
2023/03/07 17:48:37;;;;;;;11.75;6.03;;;;;;;;;;5105314;28;20024;-44
2023/03/07 17:51:09;;;;;;;10.45;6.15;;;;;;;;;;5105098;28;20050;-45
2023/03/07 17:53:36;;;;;;;7.55;5.13;;;;;;;;;;5084801;28;20028;-44
2023/03/07 17:56:09;;;;;;;8.60;5.03;;;;;;;;;;5085568;28;20103;-44
2023/03/07 17:58:37;;;;;;;7.93;5.07;;;;;;;;;;5084592;28;20124;-45
2023/03/07 18:01:03;;;;;;;9.02;5.47;;;;;;;;;;5085448;28;20312;-45
2023/03/07 18:03:30;;;;;;;11.63;6.53;;;;;;;;;;5091713;28;20466;-44
2023/03/07 18:05:58;;;;;;;10.25;6.22;;;;;;;;;;5105658;28;20023;-44
2023/03/07 18:08:25;;;;;;;10.05;6.60;;;;;;;;;;5104969;28;20078;-44
2023/03/07 18:10:51;;;;;;;11.80;6.13;;;;;;;;;;5105853;28;20063;-44
2023/03/07 18:13:20;;;;;;;10.25;5.70;;;;;;;;;;5121562;27;20031;-45
2023/03/07 18:15:46;;;;;;;8.90;5.63;;;;;;;;;;5124421;27;20103;-44
2023/03/07 18:18:12;;;;;;;8.73;5.07;;;;;;;;;;5124491;27;20035;-44
2023/03/07 18:20:39;;;;;;;8.45;5.00;;;;;;;;;;5125512;27;20031;-45
2023/03/07 18:23:06;;;;;;;8.80;4.97;;;;;;;;;;5124640;27;20041;-45
2023/03/07 18:25:32;;;;;;;8.35;4.28;;;;;;;;;;5125015;27;20019;-44
2023/03/07 18:28:00;;;;;;;8.05;4.70;;;;;;;;;;5124773;27;20410;-45
2023/03/07 18:30:26;;;;;;;7.28;3.95;;;;;;;;;;5125113;27;20026;-45
2023/03/07 18:32:54;;;;;;;6.47;4.30;;;;;;;;;;5125554;27;20490;-46
2023/03/07 18:35:22;;;;;;;5.65;4.00;;;;;;;;;;5126105;27;20378;-44
2023/03/07 18:37:48;;;;;;;8.77;5.07;;;;;;;;;;5109437;27;20024;-45
2023/03/07 18:40:18;;;;;;;7.90;4.57;;;;;;;;;;5104926;28;20027;-46
2023/03/07 18:42:45;;;;;;;7.47;4.55;;;;;;;;;;5104535;28;20134;-45
2023/03/07 18:45:11;;;;;;;6.80;4.20;;;;;;;;;;5114069;27;20030;-45
2023/03/07 18:47:38;;;;;;;6.10;3.95;;;;;;;;;;5125151;27;20054;-44
2023/03/07 18:50:04;;;;;;;7.55;4.78;;;;;;;;;;5125367;27;20511;-44
2023/03/07 18:52:30;;;;;;;5.28;4.05;;;;;;;;;;5122323;27;20508;-45
2023/03/07 18:54:56;;;;;;;7.00;4.55;;;;;;;;;;5109377;27;20050;-44
2023/03/07 18:57:22;;;;;;;8.48;5.00;;;;;;;;;;5124580;27;20027;-45
2023/03/07 18:59:49;;;;;;;7.03;4.88;;;;;;;;;;5125266;27;20030;-45
2023/03/07 19:02:15;;;;;;;7.43;4.78;;;;;;;;;;5124086;27;20462;-45
2023/03/07 19:04:42;;;;;;;8.32;4.97;;;;;;;;;;5124877;27;20035;-44
2023/03/07 19:07:09;;;;;;;7.22;4.85;;;;;;;;;;5124162;28;20038;-45
2023/03/07 19:09:35;;;;;;;7.35;4.18;;;;;;;;;;5124861;27;20080;-46
2023/03/07 19:12:01;;;;;;;6.70;4.00;;;;;;;;;;5118892;28;20044;-45
2023/03/07 19:14:28;;;;;;;7.70;4.82;;;;;;;;;;5103617;28;20024;-46
2023/03/07 19:16:54;;;;;;;7.50;5.13;;;;;;;;;;5104549;28;20036;-46
2023/03/07 19:19:21;;;;;;;8.75;5.20;;;;;;;;;;5106149;28;20106;-44
2023/03/07 19:21:47;;;;;;;7.60;4.82;;;;;;;;;;5086207;28;20024;-45
2023/03/07 19:24:13;;;;;;;8.63;5.32;;;;;;;;;;5103592;28;20426;-45
2023/03/07 19:26:40;;;;;;;7.30;4.80;;;;;;;;;;5104810;28;20502;-45
2023/03/07 19:29:08;;;;;;;8.60;5.10;;;;;;;;;;5105757;28;20016;-46
2023/03/07 19:31:34;;;;;;;8.52;5.20;;;;;;;;;;5104051;28;20037;-45
2023/03/07 19:34:03;;;;;;;9.40;5.50;;;;;;;;;;5105929;28;20496;-45
2023/03/07 19:36:30;;;;;;;8.13;5.30;;;;;;;;;;5105270;28;20031;-47
2023/03/07 19:38:58;;;;;;;9.50;5.63;;;;;;;;;;5105107;28;20019;-45
2023/03/07 19:41:25;;;;;;;10.20;5.43;;;;;;;;;;5104630;28;20490;-45
2023/03/07 19:43:51;;;;;;;8.15;5.20;;;;;;;;;;5104374;28;20024;-48
2023/03/07 19:46:18;;;;;;;9.48;5.72;;;;;;;;;;5085301;28;20053;-45
2023/03/07 19:48:44;;;;;;;10.45;5.88;;;;;;;;;;5104186;28;20020;-45
2023/03/07 19:51:14;;;;;;;9.15;5.72;;;;;;;;;;5090593;28;20398;-46
2023/03/07 19:53:40;;;;;;;9.48;5.60;;;;;;;;;;5103090;28;20114;-44